createdAt,value
2023-02-17T00:02:15.832Z,91.30
2023-02-17T00:04:43.602Z,88.77
2023-02-17T00:07:11.668Z,89.97
2023-02-17T00:09:39.646Z,85.57
2023-02-17T00:12:08.196Z,88.53
2023-02-17T00:14:35.929Z,85.03
2023-02-17T00:17:03.926Z,83.63
2023-02-17T00:19:31.752Z,91.37
2023-02-17T00:22:02.496Z,85.27
2023-02-17T00:24:33.030Z,73.40
2023-02-17T00:27:01.221Z,83.37
2023-02-17T00:29:29.334Z,83.67
2023-02-17T00:31:57.817Z,82.60
2023-02-17T00:34:27.613Z,80.93
2023-02-17T00:36:55.788Z,79.97
2023-02-17T00:39:23.799Z,84.20
2023-02-17T00:41:51.781Z,82.33
2023-02-17T00:44:21.532Z,83.97
2023-02-17T00:46:52.756Z,83.57
2023-02-17T00:49:23.899Z,79.93
2023-02-17T00:51:52.097Z,83.27
2023-02-17T00:54:20.037Z,76.60
2023-02-17T00:56:48.238Z,71.77
2023-02-17T00:59:16.098Z,80.33
2023-02-17T01:01:44.104Z,78.67
2023-02-17T01:04:12.026Z,74.13
2023-02-17T01:06:40.474Z,72.60
2023-02-17T01:09:12.858Z,76.23
2023-02-17T01:11:41.230Z,75.83
2023-02-17T01:14:09.184Z,74.27
2023-02-17T01:16:39.450Z,73.43
2023-02-17T01:19:11.381Z,73.67
2023-02-17T01:21:39.799Z,72.23
2023-02-17T01:24:12.854Z,73.73
2023-02-17T01:26:41.104Z,73.63
2023-02-17T01:29:09.093Z,69.90
2023-02-17T01:31:36.840Z,75.40
2023-02-17T01:34:05.602Z,76.40
2023-02-17T01:36:33.523Z,72.30
2023-02-17T01:39:01.561Z,74.57
2023-02-17T01:41:29.572Z,81.47
2023-02-17T01:44:24.848Z,75.63
2023-02-17T01:46:56.654Z,67.53
2023-02-17T01:49:33.307Z,61.77
2023-02-17T01:52:30.699Z,70.20
2023-02-17T01:55:03.634Z,63.93
2023-02-17T01:57:36.780Z,63.00
2023-02-17T02:00:09.724Z,64.53
2023-02-17T02:02:42.384Z,59.40
2023-02-17T02:05:14.905Z,65.60
2023-02-17T02:07:44.502Z,63.57
2023-02-17T02:10:14.307Z,60.63
2023-02-17T02:12:43.444Z,60.07
2023-02-17T02:15:21.060Z,63.57
2023-02-17T02:18:04.134Z,63.90
2023-02-17T02:21:00.534Z,60.77
2023-02-17T02:23:52.985Z,61.57
2023-02-17T02:26:34.243Z,59.07
2023-02-17T02:29:01.948Z,59.80
2023-02-17T02:32:00.831Z,57.30
2023-02-17T02:34:50.162Z,62.73
2023-02-17T02:37:20.534Z,62.53
2023-02-17T02:39:52.823Z,62.33
2023-02-17T02:42:25.783Z,70.67
2023-02-17T02:44:53.694Z,61.73
2023-02-17T02:47:45.526Z,63.37
2023-02-17T02:50:20.948Z,69.30
2023-02-17T02:53:29.692Z,66.07
2023-02-17T02:56:21.715Z,60.20
2023-02-17T02:59:21.405Z,67.67
2023-02-17T03:02:13.083Z,64.57
2023-02-17T03:05:07.709Z,60.13
2023-02-17T03:07:56.676Z,63.03
2023-02-17T03:10:25.029Z,59.13
2023-02-17T03:12:52.896Z,63.77
2023-02-17T03:15:34.874Z,63.50
2023-02-17T03:18:03.498Z,64.27
2023-02-17T03:20:35.949Z,63.87
2023-02-17T03:23:05.361Z,63.83
2023-02-17T03:25:33.848Z,58.70
2023-02-17T03:28:01.913Z,64.37
2023-02-17T03:30:30.443Z,59.33
2023-02-17T03:32:58.481Z,59.13
2023-02-17T03:35:26.527Z,67.37
2023-02-17T03:37:54.206Z,65.63
2023-02-17T03:40:22.218Z,59.63
2023-02-17T03:42:50.192Z,68.97
2023-02-17T03:45:18.238Z,66.43
2023-02-17T03:47:45.548Z,67.23
2023-02-17T03:50:13.582Z,62.50
2023-02-17T03:52:41.296Z,64.43
2023-02-17T03:55:09.477Z,66.70
2023-02-17T03:57:37.444Z,61.43
2023-02-17T04:00:07.036Z,64.27
2023-02-17T04:02:43.706Z,64.07
2023-02-17T04:05:12.623Z,61.47
2023-02-17T04:07:40.103Z,64.17
2023-02-17T04:10:09.525Z,62.23
2023-02-17T04:12:37.451Z,56.00
2023-02-17T04:15:05.958Z,62.40
2023-02-17T04:17:33.778Z,59.07
2023-02-17T04:20:01.842Z,58.70
2023-02-17T04:22:29.597Z,60.77
2023-02-17T04:24:57.607Z,56.67
2023-02-17T04:27:25.730Z,62.07
2023-02-17T04:29:54.798Z,66.73
2023-02-17T04:32:22.491Z,63.63
2023-02-17T04:34:50.422Z,60.67
2023-02-17T04:37:18.138Z,62.83
2023-02-17T04:39:46.309Z,58.27
2023-02-17T04:42:14.122Z,64.60
2023-02-17T04:44:42.206Z,57.33
2023-02-17T04:47:10.067Z,59.83
2023-02-17T04:49:38.144Z,63.10
2023-02-17T04:52:05.951Z,59.23
2023-02-17T04:54:33.972Z,53.47
2023-02-17T04:57:01.804Z,54.80
2023-02-17T04:59:29.958Z,62.37
2023-02-17T05:01:57.716Z,57.80
2023-02-17T05:04:25.897Z,53.70
2023-02-17T05:06:54.237Z,60.07
2023-02-17T05:09:22.372Z,57.97
2023-02-17T05:11:50.254Z,55.57
2023-02-17T05:14:20.693Z,59.50
2023-02-17T05:16:48.552Z,54.80
2023-02-17T05:19:16.784Z,54.87
2023-02-17T05:21:44.635Z,55.10
2023-02-17T05:24:12.772Z,54.17
2023-02-17T05:26:40.561Z,58.07
2023-02-17T05:29:08.701Z,49.63
2023-02-17T05:31:36.589Z,52.03
2023-02-17T05:34:04.933Z,53.63
2023-02-17T05:36:32.584Z,53.53
2023-02-17T05:39:00.477Z,54.17
2023-02-17T05:41:28.935Z,56.63
2023-02-17T05:43:56.985Z,50.30
2023-02-17T05:46:24.359Z,52.23
2023-02-17T05:48:52.545Z,56.57
2023-02-17T05:51:20.434Z,54.83
2023-02-17T05:53:48.683Z,61.93
2023-02-17T05:56:16.417Z,54.63
2023-02-17T05:58:44.516Z,54.73
2023-02-17T06:01:13.051Z,58.37
2023-02-17T06:03:41.026Z,55.50
2023-02-17T06:06:09.749Z,60.57
2023-02-17T06:08:38.438Z,58.77
2023-02-17T06:11:05.943Z,56.73
2023-02-17T06:13:34.112Z,56.97
2023-02-17T06:16:02.241Z,61.20
2023-02-17T06:18:30.042Z,59.77
2023-02-17T06:20:58.587Z,57.57
2023-02-17T06:23:27.696Z,58.90
2023-02-17T06:25:55.624Z,56.60
2023-02-17T06:28:23.766Z,57.23
2023-02-17T06:30:51.707Z,53.10
2023-02-17T06:33:19.889Z,57.73
2023-02-17T06:35:51.670Z,55.70
2023-02-17T06:38:20.175Z,54.57
2023-02-17T06:40:47.940Z,54.97
2023-02-17T06:43:16.099Z,59.13
2023-02-17T06:45:44.178Z,57.27
2023-02-17T06:48:12.244Z,54.50
2023-02-17T06:50:40.059Z,63.67
2023-02-17T06:53:08.392Z,55.50
2023-02-17T06:55:37.362Z,59.17
2023-02-17T06:58:05.067Z,56.90
2023-02-17T07:00:32.420Z,55.40
2023-02-17T07:03:00.446Z,59.60
2023-02-17T07:05:28.798Z,54.37
2023-02-17T07:07:58.794Z,55.27
2023-02-17T07:10:26.428Z,56.70
2023-02-17T07:12:54.049Z,59.47
2023-02-17T07:15:21.864Z,59.33
2023-02-17T07:17:49.861Z,57.47
2023-02-17T07:20:17.755Z,55.17
2023-02-17T07:22:45.576Z,60.20
2023-02-17T07:25:13.148Z,53.00
2023-02-17T07:27:41.295Z,60.17
2023-02-17T07:30:09.273Z,61.13
2023-02-17T07:32:37.133Z,56.60
2023-02-17T07:35:04.714Z,59.87
2023-02-17T07:37:32.416Z,63.77
2023-02-17T07:39:59.666Z,65.57
2023-02-17T07:42:28.330Z,63.90
2023-02-17T07:44:55.645Z,67.37
2023-02-17T07:47:23.529Z,66.77
2023-02-17T07:49:51.281Z,63.90
2023-02-17T07:52:19.499Z,67.60
2023-02-17T07:54:46.775Z,68.60
2023-02-17T07:57:14.645Z,70.00
2023-02-17T07:59:41.848Z,73.53
2023-02-17T08:02:11.823Z,74.57
2023-02-17T08:04:39.441Z,70.70
2023-02-17T08:07:07.117Z,72.30
2023-02-17T08:10:01.143Z,80.13
2023-02-17T08:12:47.875Z,83.43
2023-02-17T08:15:15.540Z,79.90
2023-02-17T08:17:44.458Z,87.23
2023-02-17T08:20:13.561Z,85.83
2023-02-17T08:22:41.513Z,87.37
2023-02-17T08:25:08.859Z,84.47
2023-02-17T08:27:36.475Z,91.10
2023-02-17T08:30:04.481Z,89.33
2023-02-17T08:32:31.993Z,87.63
2023-02-17T08:34:59.469Z,83.10
2023-02-17T08:37:27.315Z,81.33
2023-02-17T08:39:54.661Z,79.23
2023-02-17T08:42:22.953Z,88.57
2023-02-17T08:44:50.313Z,78.40
2023-02-17T08:47:18.101Z,76.57
2023-02-17T08:49:45.557Z,77.47
2023-02-17T08:52:13.418Z,78.53
2023-02-17T08:54:42.124Z,82.13
2023-02-17T08:57:10.475Z,79.93
2023-02-17T08:59:38.981Z,74.10
2023-02-17T09:02:06.787Z,79.30
2023-02-17T09:04:35.758Z,73.97
2023-02-17T09:07:04.307Z,78.23
2023-02-17T09:09:32.746Z,77.60
2023-02-17T09:12:01.332Z,79.00
2023-02-17T09:14:29.498Z,80.60
2023-02-17T09:16:58.053Z,77.83
2023-02-17T09:19:26.994Z,83.07
2023-02-17T09:21:56.326Z,78.80
2023-02-17T09:24:24.427Z,73.57
2023-02-17T09:26:52.508Z,88.47
2023-02-17T09:29:20.652Z,78.03
2023-02-17T09:31:48.622Z,84.00
2023-02-17T09:34:16.732Z,75.10
2023-02-17T09:36:45.096Z,83.80
2023-02-17T09:39:14.281Z,85.47
2023-02-17T09:41:45.371Z,79.60
2023-02-17T09:44:24.192Z,85.83
2023-02-17T09:47:05.961Z,79.77
2023-02-17T09:49:43.862Z,80.57
2023-02-17T09:52:24.511Z,77.03
2023-02-17T09:54:55.805Z,79.43
2023-02-17T09:57:28.410Z,82.20
2023-02-17T10:00:12.210Z,83.33
2023-02-17T10:03:03.393Z,79.43
2023-02-17T10:05:38.462Z,78.73
2023-02-17T10:08:13.164Z,75.23
2023-02-17T10:11:06.052Z,74.80
2023-02-17T10:13:36.800Z,78.47
2023-02-17T10:16:12.133Z,76.03
2023-02-17T10:18:51.177Z,72.20
2023-02-17T10:21:24.230Z,67.33
2023-02-17T10:23:52.662Z,74.27
2023-02-17T10:26:39.564Z,73.33
2023-02-17T10:29:21.943Z,72.63
2023-02-17T10:32:12.319Z,79.43
2023-02-17T10:34:48.931Z,83.00
2023-02-17T10:37:42.330Z,80.10
2023-02-17T10:40:16.287Z,80.97
2023-02-17T10:42:43.876Z,77.70
2023-02-17T10:45:33.833Z,77.60
2023-02-17T10:48:08.745Z,74.27
2023-02-17T10:50:38.203Z,79.20
2023-02-17T10:53:17.721Z,73.80
2023-02-17T10:56:06.955Z,73.60
2023-02-17T10:58:46.601Z,72.47
2023-02-17T11:01:14.487Z,70.57
2023-02-17T11:03:42.199Z,67.23
2023-02-17T11:06:15.652Z,67.93
2023-02-17T11:08:48.822Z,66.93
2023-02-17T11:11:25.073Z,69.57
2023-02-17T11:14:13.881Z,62.17
2023-02-17T11:16:47.638Z,61.77
2023-02-17T11:19:23.201Z,60.30
2023-02-17T11:21:52.729Z,60.07
2023-02-17T11:24:20.637Z,60.33
2023-02-17T11:27:01.663Z,59.53
2023-02-17T11:29:30.295Z,55.60
2023-02-17T11:31:58.677Z,57.63
2023-02-17T11:34:29.296Z,57.40
2023-02-17T11:37:03.427Z,49.53
2023-02-17T11:39:31.524Z,50.23
2023-02-17T11:41:59.592Z,54.70
2023-02-17T11:44:28.454Z,57.07
2023-02-17T11:47:12.897Z,49.77
2023-02-17T11:50:02.889Z,50.87
2023-02-17T11:52:56.245Z,50.17
2023-02-17T11:55:29.278Z,50.30
2023-02-17T11:58:07.373Z,54.03
2023-02-17T12:00:55.081Z,49.33
2023-02-17T12:03:44.572Z,49.23
2023-02-17T12:06:34.927Z,45.80
2023-02-17T12:09:24.794Z,47.30
2023-02-17T12:12:15.415Z,51.23
2023-02-17T12:14:50.369Z,54.43
2023-02-17T12:17:33.640Z,65.00
2023-02-17T12:20:21.726Z,59.10
2023-02-17T12:23:14.051Z,61.67
2023-02-17T12:25:58.066Z,56.27
2023-02-17T12:28:50.574Z,62.93
2023-02-17T12:31:49.172Z,68.07
2023-02-17T12:34:31.712Z,73.07
2023-02-17T12:51:39.721Z,62.60
2023-02-17T12:54:26.497Z,58.23
2023-02-17T12:57:05.318Z,57.10
2023-02-17T12:59:36.842Z,53.50
2023-02-17T13:02:13.833Z,53.97
2023-02-17T13:04:48.486Z,54.37
2023-02-17T13:07:16.671Z,53.43
2023-02-17T13:09:49.545Z,50.80
2023-02-17T13:12:17.471Z,53.30
2023-02-17T13:14:50.944Z,56.80
2023-02-17T13:17:35.436Z,61.10
2023-02-17T13:20:14.855Z,56.23
2023-02-17T13:22:44.343Z,53.20
2023-02-17T13:25:37.255Z,56.87
2023-02-17T13:28:20.496Z,58.07
2023-02-17T13:30:52.699Z,58.77
2023-02-17T13:33:24.683Z,59.10
2023-02-17T13:35:53.353Z,54.80
2023-02-17T13:38:32.290Z,52.50
2023-02-17T13:41:04.655Z,54.77
2023-02-17T13:43:41.721Z,56.43
2023-02-17T13:46:26.326Z,58.00
2023-02-17T13:49:06.133Z,60.13
2023-02-17T13:51:34.608Z,51.67
2023-02-17T13:54:08.265Z,56.50
2023-02-17T13:56:36.270Z,57.57
2023-02-17T13:59:18.059Z,58.30
2023-02-17T14:01:47.161Z,61.57
2023-02-17T14:04:23.298Z,56.40
2023-02-17T14:06:52.933Z,53.30
2023-02-17T14:09:24.571Z,54.60
2023-02-17T14:11:54.321Z,58.57
2023-02-17T14:14:24.819Z,53.43
2023-02-17T14:17:34.029Z,60.27
2023-02-17T14:20:01.615Z,57.30
2023-02-17T14:22:35.786Z,54.60
2023-02-17T14:25:12.138Z,58.73
2023-02-17T14:27:44.768Z,64.30
2023-02-17T14:30:29.490Z,52.57
2023-02-17T14:33:16.525Z,53.20
2023-02-17T14:36:11.706Z,55.80
2023-02-17T14:38:43.078Z,52.17
2023-02-17T14:41:11.242Z,57.27
2023-02-17T14:43:39.653Z,53.37
2023-02-17T14:46:07.377Z,45.23
2023-02-17T14:48:35.855Z,52.73
2023-02-17T14:51:03.871Z,46.40
2023-02-17T14:53:36.705Z,55.17
2023-02-17T14:56:31.407Z,50.87
2023-02-17T14:58:59.775Z,53.13
2023-02-17T15:01:28.025Z,39.97
2023-02-17T15:03:56.750Z,49.10
2023-02-17T15:06:34.578Z,43.77
2023-02-17T15:09:03.483Z,48.20
2023-02-17T15:11:37.678Z,41.00
2023-02-17T15:14:07.281Z,39.73
2023-02-17T15:16:35.394Z,43.60
2023-02-17T15:19:03.604Z,41.07
2023-02-17T15:21:33.770Z,39.67
2023-02-17T15:24:04.527Z,38.07
2023-02-17T15:26:33.348Z,38.37
2023-02-17T15:29:02.578Z,43.00
2023-02-17T15:31:34.085Z,36.00
2023-02-17T15:34:02.724Z,41.67
2023-02-17T15:36:33.559Z,37.23
2023-02-17T15:39:02.199Z,39.70
2023-02-17T15:41:31.940Z,41.57
2023-02-17T15:44:04.689Z,35.77
2023-02-17T15:46:35.137Z,40.77
2023-02-17T15:49:05.352Z,38.03
2023-02-17T15:51:33.296Z,36.73
2023-02-17T15:54:01.948Z,35.33
2023-02-17T15:56:43.511Z,33.77
2023-02-17T15:59:21.715Z,39.13
2023-02-17T16:01:51.277Z,32.53
2023-02-17T16:04:20.538Z,33.40
2023-02-17T16:06:49.842Z,38.73
2023-02-17T16:09:21.515Z,36.57
2023-02-17T16:11:56.925Z,36.57
2023-02-17T16:14:35.883Z,37.03
2023-02-17T16:17:10.512Z,33.83
2023-02-17T16:19:39.765Z,37.40
2023-02-17T16:22:08.725Z,39.23
2023-02-17T16:24:37.938Z,37.33
2023-02-17T16:27:10.370Z,41.07
2023-02-17T16:29:39.183Z,38.53
2023-02-17T16:32:08.216Z,40.50
2023-02-17T16:34:36.916Z,39.57
2023-02-17T16:37:13.002Z,40.00
2023-02-17T16:39:41.970Z,41.30
2023-02-17T16:42:15.850Z,40.37
2023-02-17T16:44:45.234Z,38.10
2023-02-17T16:47:23.069Z,38.57
2023-02-17T16:49:52.619Z,40.73
2023-02-17T16:52:28.233Z,41.53
2023-02-17T16:54:57.273Z,41.63
2023-02-17T16:57:26.664Z,38.40
2023-02-17T16:59:56.631Z,40.33
2023-02-17T17:02:25.827Z,41.93
2023-02-17T17:04:55.091Z,41.43
2023-02-17T17:07:23.992Z,42.97
2023-02-17T17:10:15.457Z,44.23
2023-02-17T17:12:43.524Z,41.87
2023-02-17T17:15:14.185Z,42.53
2023-02-17T17:18:02.064Z,47.80
2023-02-17T17:20:37.263Z,53.37
2023-02-17T17:23:11.850Z,50.57
2023-02-17T17:25:42.978Z,41.63
2023-02-17T17:28:19.124Z,44.50
2023-02-17T17:30:48.686Z,39.33
2023-02-17T17:33:17.746Z,42.17
2023-02-17T17:35:47.107Z,43.17
2023-02-17T17:38:16.045Z,38.57
2023-02-17T17:40:53.674Z,42.20
2023-02-17T17:44:02.813Z,44.30
2023-02-17T17:46:34.483Z,48.63
2023-02-17T17:49:04.908Z,43.23
2023-02-17T17:51:34.172Z,41.90
2023-02-17T17:54:02.026Z,37.23
2023-02-17T17:56:36.432Z,46.53
2023-02-17T17:59:05.017Z,38.67
2023-02-17T18:01:33.795Z,36.37
2023-02-17T18:04:01.999Z,37.37
2023-02-17T18:06:51.860Z,32.07
2023-02-17T18:09:31.622Z,32.77
2023-02-17T18:12:04.623Z,40.40
2023-02-17T18:14:32.781Z,35.87
2023-02-17T18:17:00.826Z,29.37
2023-02-17T18:19:30.609Z,34.00
2023-02-17T18:21:58.761Z,27.67
2023-02-17T18:24:26.649Z,31.77
2023-02-17T18:26:55.152Z,26.90
2023-02-17T18:29:23.907Z,29.27
2023-02-17T18:31:52.890Z,24.10
2023-02-17T18:34:23.475Z,25.10
2023-02-17T18:36:52.182Z,30.20
2023-02-17T18:39:20.784Z,28.53
2023-02-17T18:41:50.073Z,25.80
2023-02-17T18:44:21.195Z,24.10
2023-02-17T18:46:50.771Z,29.87
2023-02-17T18:49:19.699Z,25.87
2023-02-17T18:51:48.602Z,26.67
2023-02-17T18:54:17.457Z,26.30
2023-02-17T18:56:46.126Z,27.77
2023-02-17T18:59:13.831Z,27.23
2023-02-17T19:01:44.160Z,34.43
2023-02-17T19:04:13.529Z,30.93
2023-02-17T19:06:41.984Z,26.53
2023-02-17T19:09:13.897Z,25.37
2023-02-17T19:11:42.586Z,25.30
2023-02-17T19:14:10.398Z,16.70
2023-02-17T19:16:38.339Z,17.70
2023-02-17T19:19:06.844Z,13.23
2023-02-17T19:21:36.443Z,16.03
2023-02-17T19:24:04.233Z,12.37
2023-02-17T19:26:32.787Z,12.97
2023-02-17T19:29:00.686Z,12.30
2023-02-17T19:31:29.217Z,9.33
2023-02-17T19:33:57.779Z,8.20
2023-02-17T19:36:25.901Z,9.43
2023-02-17T19:38:56.657Z,9.47
2023-02-17T19:41:25.138Z,11.27
2023-02-17T19:43:53.182Z,7.00
2023-02-17T19:46:22.924Z,12.13
2023-02-17T19:48:51.285Z,10.97
2023-02-17T19:51:20.064Z,10.83
2023-02-17T19:53:48.927Z,19.97
2023-02-17T19:56:21.601Z,17.23
2023-02-17T19:58:50.500Z,10.93
2023-02-17T20:01:31.010Z,29.17
2023-02-17T20:03:59.741Z,14.40
2023-02-17T20:06:35.252Z,22.77
2023-02-17T20:09:06.416Z,19.67
2023-02-17T20:11:34.898Z,10.90
2023-02-17T20:14:03.994Z,10.77
2023-02-17T20:16:32.246Z,26.67
2023-02-17T20:19:02.927Z,11.97
2023-02-17T20:21:33.473Z,19.80
2023-02-17T20:24:01.670Z,8.93
2023-02-17T20:26:39.310Z,17.40
2023-02-17T20:29:08.485Z,18.93
2023-02-17T20:31:39.701Z,15.00
2023-02-17T20:34:15.154Z,11.17
2023-02-17T20:36:44.187Z,13.63
2023-02-17T20:39:13.104Z,10.80
2023-02-17T20:41:42.743Z,13.57
2023-02-17T20:44:12.717Z,8.00
2023-02-17T20:46:43.508Z,14.97
2023-02-17T20:49:12.246Z,14.70
2023-02-17T20:51:41.458Z,20.23
2023-02-17T20:54:09.468Z,9.90
2023-02-17T20:56:44.154Z,17.70
2023-02-17T20:59:13.730Z,18.73
2023-02-17T21:01:43.728Z,15.23
2023-02-17T21:04:14.587Z,16.23
2023-02-17T21:06:44.042Z,11.10
2023-02-17T21:09:17.949Z,11.17
2023-02-17T21:11:46.758Z,17.17
2023-02-17T21:14:16.032Z,11.00
2023-02-17T21:16:46.712Z,20.50
2023-02-17T21:19:15.620Z,11.17
2023-02-17T21:21:43.829Z,8.67
2023-02-17T21:24:12.625Z,23.27
2023-02-17T21:26:42.605Z,7.47
2023-02-17T21:29:12.785Z,13.07
2023-02-17T21:31:43.524Z,19.37
2023-02-17T21:34:14.296Z,27.80
2023-02-17T21:36:44.612Z,16.53
2023-02-17T21:39:14.619Z,14.23
2023-02-17T21:41:45.196Z,24.33
2023-02-17T21:44:32.010Z,30.20
2023-02-17T21:47:00.347Z,23.40
2023-02-17T21:49:28.767Z,29.23
2023-02-17T21:51:57.473Z,34.27
2023-02-17T21:54:25.544Z,36.30
2023-02-17T21:56:54.117Z,31.90
2023-02-17T21:59:22.534Z,31.23
2023-02-17T22:01:53.842Z,22.63
2023-02-17T22:04:22.535Z,25.67
2023-02-17T22:06:51.001Z,39.23
2023-02-17T22:09:18.775Z,16.03
2023-02-17T22:11:47.593Z,19.03
2023-02-17T22:14:19.408Z,22.07
2023-02-17T22:16:48.952Z,25.10
2023-02-17T22:19:19.859Z,21.87
2023-02-17T22:21:47.883Z,18.27
2023-02-17T22:24:16.085Z,18.37
2023-02-17T22:26:44.121Z,52.07
2023-02-17T22:29:11.874Z,32.17
2023-02-17T22:31:39.942Z,26.43
2023-02-17T22:34:10.138Z,29.70
2023-02-17T22:36:38.564Z,14.93
2023-02-17T22:39:08.312Z,17.97
2023-02-17T22:41:37.381Z,19.57
2023-02-17T22:44:05.197Z,13.80
2023-02-17T22:46:33.524Z,10.83
2023-02-17T22:49:01.118Z,16.83
2023-02-17T22:51:32.132Z,17.00
2023-02-17T22:54:01.419Z,18.33
2023-02-17T22:56:30.453Z,17.80
2023-02-17T22:59:01.545Z,23.27
2023-02-17T23:01:31.798Z,23.67
2023-02-17T23:03:59.727Z,18.63
2023-02-17T23:06:33.439Z,19.23
2023-02-17T23:09:01.618Z,18.27
2023-02-17T23:11:50.502Z,14.67
2023-02-17T23:14:38.333Z,13.90
2023-02-17T23:17:13.554Z,14.97
2023-02-17T23:19:42.692Z,21.13
2023-02-17T23:22:16.333Z,23.53
2023-02-17T23:24:45.649Z,14.73
2023-02-17T23:27:14.520Z,21.27
2023-02-17T23:29:42.501Z,23.13
2023-02-17T23:32:10.611Z,22.17
2023-02-17T23:34:38.730Z,20.37
2023-02-17T23:37:06.689Z,16.10
2023-02-17T23:39:38.516Z,11.60
2023-02-17T23:42:07.468Z,14.20
2023-02-17T23:44:35.559Z,12.87
2023-02-17T23:47:03.868Z,12.00
2023-02-17T23:49:31.804Z,13.43
2023-02-17T23:51:59.989Z,19.93
2023-02-17T23:54:28.642Z,16.07
2023-02-17T23:56:56.618Z,17.87
2023-02-17T23:59:24.331Z,14.23
